Map

Track Data

SID SEASON NUMBER BASIN SUBBASIN NAME ISO_TIME NATURE LAT LON WMO_WIND WMO_PRES WMO_AGENCY TRACK_TYPE DIST2LAND LANDFALL IFLAG USA_AGENCY USA_ATCF_ID USA_LAT USA_LON USA_RECORD USA_STATUS USA_WIND USA_PRES USA_SSHS USA_R34_NE USA_R34_SE USA_R34_SW USA_R34_NW USA_R50_NE USA_R50_SE USA_R50_SW USA_R50_NW USA_R64_NE USA_R64_SE USA_R64_SW USA_R64_NW USA_POCI USA_ROCI USA_RMW USA_EYE TOKYO_LAT TOKYO_LON TOKYO_GRADE TOKYO_WIND TOKYO_PRES TOKYO_R50_DIR TOKYO_R50_LONG TOKYO_R50_SHORT TOKYO_R30_DIR TOKYO_R30_LONG TOKYO_R30_SHORT TOKYO_LAND CMA_LAT CMA_LON CMA_CAT CMA_WIND CMA_PRES HKO_LAT HKO_LON HKO_CAT HKO_WIND HKO_PRES NEWDELHI_LAT NEWDELHI_LON NEWDELHI_GRADE NEWDELHI_WIND NEWDELHI_PRES NEWDELHI_CI NEWDELHI_DP NEWDELHI_POCI REUNION_LAT REUNION_LON REUNION_TYPE REUNION_WIND REUNION_PRES REUNION_TNUM REUNION_CI REUNION_RMW REUNION_R34_NE REUNION_R34_SE REUNION_R34_SW REUNION_R34_NW REUNION_R50_NE REUNION_R50_SE REUNION_R50_SW REUNION_R50_NW REUNION_R64_NE REUNION_R64_SE REUNION_R64_SW REUNION_R64_NW BOM_LAT BOM_LON BOM_TYPE BOM_WIND BOM_PRES BOM_TNUM BOM_CI BOM_RMW BOM_R34_NE BOM_R34_SE BOM_R34_SW BOM_R34_NW BOM_R50_NE BOM_R50_SE BOM_R50_SW BOM_R50_NW BOM_R64_NE BOM_R64_SE BOM_R64_SW BOM_R64_NW BOM_ROCI BOM_POCI BOM_EYE BOM_POS_METHOD BOM_PRES_METHOD NADI_LAT NADI_LON NADI_CAT NADI_WIND NADI_PRES WELLINGTON_LAT WELLINGTON_LON WELLINGTON_WIND WELLINGTON_PRES DS824_LAT DS824_LON DS824_STAGE DS824_WIND DS824_PRES TD9636_LAT TD9636_LON TD9636_STAGE TD9636_WIND TD9636_PRES TD9635_LAT TD9635_LON TD9635_WIND TD9635_PRES TD9635_ROCI NEUMANN_LAT NEUMANN_LON NEUMANN_CLASS NEUMANN_WIND NEUMANN_PRES MLC_LAT MLC_LON MLC_CLASS MLC_WIND MLC_PRES USA_GUST BOM_GUST BOM_GUST_PER REUNION_GUST REUNION_GUST_PER USA_SEAHGT USA_SEARAD_NE USA_SEARAD_SE USA_SEARAD_SW USA_SEARAD_NW STORM_SPEED STORM_DIR
1951124N04167 1951 26 WP MM JOAN 1951-05-03 12:00:00 TS 4.00000 166.500 main 1526 1513 O________OOO__ jtwc_wp WP041951 4.00000 166.500 30 -1 4.00000 166.500 TC 30 4.00000 166.500 1 30 4.00000 166.500 30 997 180 7 278
1951124N04167 1951 26 WP MM JOAN 1951-05-03 15:00:00 TS 4.05117 166.143 main 1519 1506 P________PPP__ WP041951 4.05253 166.153 32 -1 4.05253 166.153 TC 32 4.04710 166.116 1 31 4.05253 166.153 32 997 180 7 278
1951124N04167 1951 26 WP MM JOAN 1951-05-03 18:00:00 TS 4.09882 165.786 main 1506 1494 O________OPO__ jtwc_wp WP041951 4.10000 165.800 35 0 4.10000 165.800 TC 35 4.09527 165.745 1 32 4.10000 165.800 35 997 180 7 277
1951124N04167 1951 26 WP MM JOAN 1951-05-03 21:00:00 TS 4.14332 165.432 main 1490 1490 P________PPP__ WP041951 4.14249 165.443 35 0 4.14249 165.443 TC 35 4.14581 165.402 1 33 4.14249 165.443 35 997 180 7 278
1951124N04167 1951 26 WP MM JOAN 1951-05-04 00:00:00 TS 4.20000 165.100 main 1490 1483 O________OOO__ jtwc_wp WP041951 4.20000 165.100 35 0 4.20000 165.100 TC 35 4.20000 165.100 2 35 4.20000 165.100 35 997 180 6 283
1951124N04167 1951 26 WP MM JOAN 1951-05-04 03:00:00 TS 4.28986 164.800 main 1490 1484 P________PPP__ WP041951 4.29999 164.785 37 0 4.29999 164.785 TC 37 4.25949 164.844 2 35 4.29999 164.785 37 996 180 6 288
1951124N04167 1951 26 WP MM JOAN 1951-05-04 06:00:00 TS 4.38180 164.526 main 1491 1481 O________OPO__ jtwc_wp WP041951 4.40000 164.500 40 0 4.40000 164.500 TC 40 4.32719 164.602 2 35 4.40000 164.500 40 996 180 5 286
1951124N04167 1951 26 WP MM JOAN 1951-05-04 09:00:00 TS 4.43903 164.294 main 1481 1478 P________PPP__ WP041951 4.44993 164.280 37 0 4.44993 164.280 TC 37 4.40632 164.335 2 35 4.44993 164.280 37 996 180 5 283
1951124N04167 1951 26 WP MM JOAN 1951-05-04 12:00:00 TS 4.50000 164.000 main 1478 1465 O________OOO__ jtwc_wp WP041951 4.50000 164.000 35 0 4.50000 164.000 TC 35 4.50000 164.000 2 35 4.50000 164.000 35 997 180 8 281
1951124N04167 1951 26 WP MM JOAN 1951-05-04 15:00:00 TS 4.58636 163.546 main 1467 1450 P________PPP__ WP041951 4.58501 163.545 35 0 4.58501 163.545 TC 35 4.59039 163.551 2 35 4.58501 163.545 35 997 180 10 281
1951124N04167 1951 26 WP MM JOAN 1951-05-04 18:00:00 TS 4.69940 163.008 main 1450 1426 O________OPO__ jtwc_wp WP041951 4.70000 163.000 35 0 4.70000 163.000 TC 35 4.69759 163.032 2 35 4.70000 163.000 35 997 180 11 283
1951124N04167 1951 26 WP MM JOAN 1951-05-04 21:00:00 TS 4.82836 162.456 main 1426 1407 P________PPP__ WP041951 4.82749 162.450 35 0 4.82749 162.450 TC 35 4.83098 162.473 2 35 4.82749 162.450 35 997 180 11 285
1951124N04167 1951 26 WP MM JOAN 1951-05-05 00:00:00 TS 5.00000 161.900 main 1407 1397 O________OOO__ jtwc_wp WP041951 5.00000 161.900 35 0 5.00000 161.900 TC 35 5.00000 161.900 2 35 5.00000 161.900 35 998 180 11 291
1951124N04167 1951 26 WP MM JOAN 1951-05-05 03:00:00 TS 5.22564 161.389 main 1397 1384 P________PPP__ WP041951 5.23491 161.407 35 0 5.23491 161.407 TC 35 5.19785 161.333 2 33 5.23491 161.407 35 998 180 11 295
1951124N04167 1951 26 WP MM JOAN 1951-05-05 06:00:00 TS 5.48315 160.866 main 1385 1361 O________OPO__ jtwc_wp WP041951 5.50000 160.900 35 0 5.50000 160.900 TC 35 5.43258 160.762 2 32 5.50000 160.900 35 998 180 12 294
1951124N04167 1951 26 WP MM JOAN 1951-05-05 09:00:00 TS 5.72656 160.261 main 1361 1345 P________PPP__ WP041951 5.73508 160.277 32 -1 5.73508 160.277 TC 32 5.70101 160.211 2 31 5.73508 160.277 32 998 180 13 294
1951124N04167 1951 26 WP MM JOAN 1951-05-05 12:00:00 TS 6.00000 159.700 main 1348 1341 O________OOO__ jtwc_wp WP041951 6.00000 159.700 30 -1 6.00000 159.700 TC 30 6.00000 159.700 1 30 6.00000 159.700 30 999 180 11 302
1951124N04167 1951 26 WP MM JOAN 1951-05-05 15:00:00 TS 6.32940 159.300 main 1347 1347 P________PPP__ WP041951 6.33485 159.327 30 -1 6.33485 159.327 TC 30 6.31303 159.216 1 30 6.33485 159.327 30 999 180 10 313
1951124N04167 1951 26 WP MM JOAN 1951-05-05 18:00:00 TS 6.68873 158.945 main 1357 1357 O________OPO__ jtwc_wp WP041951 6.70000 159.000 30 -1 6.70000 159.000 TC 30 6.65492 158.780 1 30 6.70000 159.000 30 1000 180 11 311
1951124N04167 1951 26 WP MM JOAN 1951-05-05 21:00:00 TS 7.03679 158.491 main 1361 1357 P________PPP__ WP041951 7.04260 158.520 30 -1 7.04260 158.520 TC 30 7.01935 158.404 1 30 7.04260 158.520 30 1000 180 11 302
1951124N04167 1951 26 WP MM JOAN 1951-05-06 00:00:00 TS 7.30000 157.978 1005 tokyo main 1361 1355 OOO______OOO__ jtwc_wp WP041951 7.40000 158.100 30 -1 6.50000 157.000 2 1005 0 0 0 6.50000 157.000 0 1005 7.40000 158.100 TC 30 7.40000 158.100 1 30 7.40000 158.100 30 1001 180 10 308
1951124N04167 1951 26 WP MM JOAN 1951-05-06 03:00:00 TS 7.63579 157.706 main 1372 1372 PPP______PPP__ WP041951 7.79241 157.905 27 -1 7.03250 156.978 2 1004 0 0 7.03250 156.990 0 1004 7.79241 157.905 TC 27 7.76921 157.833 1 28 7.79241 157.905 27 1001 180 8 329
1951124N04167 1951 26 WP MM JOAN 1951-05-06 06:00:00 TS 8.00087 157.553 1003 tokyo main 1406 1401 OOO______OPO__ jtwc_wp WP041951 8.20000 157.800 25 -1 7.50000 157.000 2 1003 0 0 0 7.50000 157.000 1 29 1003 8.20000 157.800 TC 25 8.15480 157.643 1 27 8.20000 157.800 25 1002 180 8 338
1951124N04167 1951 26 WP MM JOAN 1951-05-06 09:00:00 TS 8.34134 157.425 main 1425 1425 PPP______PPP__ WP041951 8.58501 157.628 25 -1 7.86500 157.092 2 1003 0 0 7.86500 157.043 1 29 1003 8.58501 157.628 TC 25 8.56300 157.531 1 26 8.58501 157.628 25 1002 180 8 347
1951124N04167 1951 26 WP MM JOAN 1951-05-06 12:00:00 TS 8.73333 157.383 1003 tokyo main 1465 1465 OOO______OOO__ jtwc_wp WP041951 9.00000 157.500 25 -1 8.20000 157.200 2 1003 0 0 0 8.20000 157.100 1 29 1003 9.00000 157.500 TC 25 9.00000 157.500 1 25 9.00000 157.500 25 1002 180 9 357
1951124N04167 1951 26 WP MM JOAN 1951-05-06 15:00:00 TS 9.18559 157.371 main 1515 1515 PPP______PPP__ WP041951 9.48496 157.440 27 -1 8.57749 157.243 2 1003 0 0 8.57749 157.135 1 29 1003 9.48496 157.440 TC 27 9.50365 157.525 1 26 9.48496 157.440 27 1002 180 9 3
1951124N04167 1951 26 WP MM JOAN 1951-05-06 18:00:00 TS 9.67165 157.438 1003 tokyo main 1565 1565 OOO______OPO__ jtwc_wp WP041951 10.0000 157.500 30 -1 9.00000 157.300 2 1003 0 0 0 9.00000 157.200 1 29 1003 10.0000 157.500 TC 30 10.0299 157.630 1 27 10.0000 157.500 30 1002 180 10 13
1951124N04167 1951 26 WP MM JOAN 1951-05-06 21:00:00 TS 10.1798 157.611 main 1625 1625 PPP______PPP__ WP041951 10.5150 157.712 30 -1 9.50000 157.427 2 1001 0 0 9.49245 157.305 1 29 1001 10.5150 157.712 TC 30 10.5412 157.794 1 28 10.5150 157.712 30 1002 180 11 22
1951124N04167 1951 26 WP MM JOAN 1951-05-07 00:00:00 TS 10.6667 157.850 1000 tokyo main 1684 1684 OOO______OOO__ jtwc_wp WP041951 11.0000 158.000 30 -1 10.0000 157.600 2 1000 0 0 0 10.0000 157.500 1 29 1000 11.0000 158.000 TC 30 11.0000 158.000 1 30 11.0000 158.000 30 1003 180 10 27
1951124N04167 1951 26 WP MM JOAN 1951-05-07 03:00:00 TS 11.0956 158.092 main 1739 1739 PPP______PPP__ WP041951 11.4450 158.250 35 0 10.4074 157.770 2 1000 0 0 10.4575 157.820 1 29 1000 11.4450 158.250 TC 35 11.3738 158.214 1 36 11.4450 158.250 35 1003 210 9 32
1951124N04167 1951 26 WP MM JOAN 1951-05-07 06:00:00 TS 11.4650 158.360 1000 tokyo main 1794 1794 OOO______OPO__ jtwc_wp WP041951 11.8000 158.500 40 0 10.8000 158.000 2 1000 0 0 0 10.9000 158.200 1 29 1000 11.8000 158.500 TC 40 11.6900 158.462 1 42 11.8000 158.500 40 1004 240 9 39
1951124N04167 1951 26 WP MM JOAN 1951-05-07 09:00:00 TS 11.7702 158.643 main 1834 1834 PPP______PPP__ WP041951 12.0150 158.750 47 0 11.2575 158.327 2 999 0 0 11.3575 158.550 1 33 999 12.0150 158.750 TC 47 11.9612 158.730 1 48 12.0150 158.750 47 1002 240 8 44
1951124N04167 1951 26 WP MM JOAN 1951-05-07 12:00:00 TS 12.0500 158.933 998 tokyo main 1879 1879 OOO______OOO__ jtwc_wp WP041951 12.2000 159.000 55 0 11.7000 158.700 2 998 0 0 0 11.8000 158.900 2 38 998 12.2000 159.000 TC 55 12.2000 159.000 2 55 12.2000 159.000 55 1000 240 8 43
1951124N04167 1951 26 WP MM JOAN 1951-05-07 15:00:00 TS 12.3705 159.217 main 1924 1924 PPP______PPP__ WP041951 12.5150 159.250 57 0 12.0424 159.028 2 996 0 0 12.2150 159.258 2 38 996 12.5150 159.250 TC 57 12.4206 159.266 2 57 12.5150 159.250 57 998 270 8 42
1951124N04167 1951 26 WP MM JOAN 1951-05-07 18:00:00 TS 12.6692 159.505 995 tokyo main 1968 1968 OOO______OPO__ jtwc_wp WP041951 12.8000 159.500 60 0 12.4000 159.400 2 995 0 0 0 12.6000 159.600 2 38 995 12.8000 159.500 TC 60 12.6150 159.530 2 60 12.8000 159.500 60 997 300 8 48
1951124N04167 1951 26 WP MM JOAN 1951-05-07 21:00:00 TS 12.9058 159.817 main 2003 2003 PPP______PPP__ WP041951 12.9075 159.758 62 0 12.9302 159.929 2 992 0 0 12.9800 159.923 2 43 992 12.9075 159.758 TC 62 12.8019 159.779 2 62 12.9075 159.758 62 994 300 7 52
1951124N04167 1951 26 WP MM JOAN 1951-05-08 00:00:00 TS 13.1167 160.100 990 tokyo main 2038 2038 OOO______OOO__ jtwc_wp WP041951 13.0000 160.000 65 1 13.4000 160.400 9 990 0 0 0 13.3000 160.200 3 48 990 13.0000 160.000 TC 65 13.0000 160.000 3 65 13.0000 160.000 65 992 300 7 47
1951124N04167 1951 26 WP MM JOAN 1951-05-08 03:00:00 TS 13.3496 160.313 main 2068 2068 PPP______PPP__ WP041951 13.2275 160.222 65 1 13.6098 160.610 9 985 0 0 13.5375 160.423 3 53 985 13.2275 160.222 TC 65 13.2680 160.179 3 66 13.2275 160.222 65 991 270 6 38
1951124N04167 1951 26 WP MM JOAN 1951-05-08 06:00:00 TS 13.5741 160.472 980 tokyo main 2108 2108 OOO______OPO__ jtwc_wp WP041951 13.5000 160.400 65 1 13.7000 160.700 9 980 0 0 0 13.7000 160.600 3 58 980 13.5000 160.400 TC 65 13.5448 160.330 3 67 13.5000 160.400 65 990 240 5 31
1951124N04167 1951 26 WP MM JOAN 1951-05-08 09:00:00 TS 13.7848 160.586 main 2133 2133 PPP______PPP__ WP041951 13.7649 160.493 67 1 13.8075 160.808 9 980 0 0 13.8075 160.765 3 58 980 13.7649 160.493 TC 67 13.7993 160.466 3 68 13.7649 160.493 67 989 240 5 29
1951124N04167 1951 26 WP MM JOAN 1951-05-08 12:00:00 TS 13.9667 160.700 980 tokyo main 2158 2158 OOO______OOO__ jtwc_wp WP041951 14.0000 160.600 70 1 13.9000 160.900 9 980 0 0 0 13.9000 160.900 3 58 980 14.0000 160.600 TC 70 14.0000 160.600 4 70 14.0000 160.600 70 989 240 5 41
1951124N04167 1951 26 WP MM JOAN 1951-05-08 15:00:00 TS 14.1336 160.895 main 2178 2178 PPP______PPP__ WP041951 14.1951 160.857 72 1 14.0075 161.000 9 982 0 0 14.0650 161.007 3 58 982 14.1951 160.857 TC 72 14.1441 160.791 4 70 14.1951 160.857 72 988 240 5 54
1951124N04167 1951 26 WP MM JOAN 1951-05-08 18:00:00 TS 14.2379 161.079 985 tokyo main 2198 2198 OOO______OPO__ jtwc_wp WP041951 14.3000 161.100 75 1 14.1000 161.100 9 985 0 0 0 14.2000 161.100 3 58 985 14.3000 161.100 TC 75 14.2276 160.975 4 70 14.3000 161.100 75 988 240 3 64
1951124N04167 1951 26 WP MM JOAN 1951-05-08 21:00:00 TS 14.2733 161.195 main 2213 2204 PPP______PPP__ WP041951 14.3100 161.195 72 1 14.2025 161.230 9 985 0 0 14.2600 161.230 3 58 985 14.3100 161.195 TC 72 14.2472 161.122 4 70 14.3100 161.195 72 988 240 2 104
1951124N04167 1951 26 WP MM JOAN 1951-05-09 00:00:00 TS 14.2000 161.233 985 tokyo main 2204 2184 OOO______OOO__ jtwc_wp WP041951 14.2000 161.200 70 1 14.2000 161.300 9 985 0 0 0 14.2000 161.300 3 58 985 14.2000 161.200 TC 70 14.2000 161.200 4 70 14.2000 161.200 70 989 240 3 0
1951124N04167 1951 26 WP MM JOAN 1951-05-09 03:00:00 TS 13.9765 161.215 main 2184 2150 PPP______PPP__ WP041951 13.9575 161.180 67 1 13.9649 161.260 9 985 0 0 13.9650 161.245 3 58 985 13.9575 161.180 TC 67 14.0567 161.245 4 67 13.9575 161.180 67 989 270 5 193
1951124N04167 1951 26 WP MM JOAN 1951-05-09 06:00:00 TS 13.7261 161.118 985 tokyo main 2150 2135 OOO______OPO__ jtwc_wp WP041951 13.7000 161.100 65 1 13.7000 161.100 9 985 0 0 0 13.7000 161.100 3 58 985 13.7000 161.100 TC 65 13.8566 161.210 4 65 13.7000 161.100 65 989 300 4 210
1951124N04167 1951 26 WP MM JOAN 1951-05-09 09:00:00 TS 13.5896 160.987 main 2135 2114 PPP______PPP__ WP041951 13.5698 161.025 62 0 13.6125 160.838 9 985 0 0 13.5624 160.938 3 58 985 13.5698 161.025 TC 62 13.6533 161.070 4 62 13.5698 161.025 62 989 300 4 241
1951124N04167 1951 26 WP MM JOAN 1951-05-09 12:00:00 TS 13.5167 160.733 985 tokyo main 2109 2088 OOO______OOO__ jtwc_wp WP041951 13.5000 160.800 60 0 13.6000 160.500 9 985 0 0 0 13.5000 160.700 3 58 985 13.5000 160.800 TC 60 13.5000 160.800 2 60 13.5000 160.800 60 989 300 7 258
1951124N04167 1951 26 WP MM JOAN 1951-05-09 15:00:00 TS 13.4552 160.311 main 2088 2053 PPP______PPP__ WP041951 13.4202 160.310 57 0 13.5774 160.172 9 986 0 0 13.4699 160.402 3 53 986 13.4202 160.310 TC 57 13.4236 160.363 2 57 13.4202 160.310 57 989 300 9 266
1951124N04167 1951 26 WP MM JOAN 1951-05-09 18:00:00 TS 13.4514 159.784 988 tokyo main 2063 2038 OOO______OPO__ jtwc_wp WP041951 13.4000 159.700 55 0 13.6000 159.800 9 988 0 0 0 13.5000 160.000 3 48 988 13.4000 159.700 TC 55 13.4087 159.804 2 55 13.4000 159.700 55 990 300 10 273
1951124N04167 1951 26 WP MM JOAN 1951-05-09 21:00:00 TS 13.5140 159.239 main 2033 2019 PPP______PPP__ WP041951 13.4625 159.128 52 0 13.6699 159.380 9 989 0 0 13.5626 159.480 3 48 989 13.4625 159.128 TC 52 13.4642 159.194 2 52 13.4625 159.128 52 990 300 11 281
1951124N04167 1951 26 WP MM JOAN 1951-05-10 00:00:00 TS 13.6500 158.700 990 tokyo main 2029 2015 OOO______OOO__ jtwc_wp WP041951 13.6000 158.600 50 0 13.8000 158.900 9 990 0 0 0 13.7000 158.900 3 48 990 13.6000 158.600 TC 50 13.6000 158.600 2 50 13.6000 158.600 50 990 300 10 288
1951124N04167 1951 26 WP MM JOAN 1951-05-10 03:00:00 TS 13.8283 158.232 main 2016 2016 PPP______PPP__ WP041951 13.7547 158.192 47 0 13.9700 158.357 9 991 0 0 13.9274 158.350 3 48 991 13.7547 158.192 TC 47 13.8084 158.109 2 47 13.7547 158.192 47 991 270 10 296
1951124N04167 1951 26 WP MM JOAN 1951-05-10 06:00:00 TS 14.0824 157.775 993 tokyo main 2030 2026 OOO______OPO__ jtwc_wp WP041951 14.0000 157.800 45 0 14.2000 157.800 9 993 0 0 0 14.2000 157.800 3 48 993 14.0000 157.800 TC 45 14.0946 157.648 2 45 14.0000 157.800 45 993 240 11 302
1951124N04167 1951 26 WP MM JOAN 1951-05-10 09:00:00 TS 14.4119 157.268 main 2041 2037 PPP______PPP__ WP041951 14.3776 157.300 42 0 14.4774 157.285 9 994 0 0 14.4276 157.212 3 43 994 14.3776 157.300 TC 42 14.4335 157.212 2 42 14.3776 157.300 42 995 240 12 306
1951124N04167 1951 26 WP MM JOAN 1951-05-10 12:00:00 TS 14.7833 156.783 995 tokyo main 2065 2062 OOO______OOO__ jtwc_wp WP041951 14.8000 156.800 40 0 14.8000 156.800 9 995 0 0 0 14.7000 156.700 2 38 995 14.8000 156.800 TC 40 14.8000 156.800 2 40 14.8000 156.800 40 997 240 11 309
1951124N04167 1951 26 WP MM JOAN 1951-05-10 15:00:00 TS 15.1202 156.367 main 2084 2080 PPP______PPP__ WP041951 15.1499 156.377 37 0 15.1125 156.312 9 997 0 0 15.0548 156.362 2 38 997 15.1499 156.377 TC 37 15.1045 156.394 2 40 15.1499 156.377 37 998 240 10 313
1951124N04167 1951 26 WP MM JOAN 1951-05-10 18:00:00 TS 15.4895 156.002 1000 tokyo main 2114 2114 OOO______OPO__ jtwc_wp WP041951 15.5000 156.000 35 0 15.5000 155.900 9 1000 0 0 0 15.5000 156.100 2 38 1000 15.5000 156.000 TC 35 15.4373 156.011 2 40 15.5000 156.000 35 1000 240 11 320
1951124N04167 1951 26 WP MM JOAN 1951-05-10 21:00:00 TS 15.9365 155.650 main 2146 2146 PPP______PPP__ WP041951 15.9075 155.613 37 0 16.0274 155.612 9 1002 0 0 16.0425 155.800 2 38 1000 15.9075 155.613 TC 37 15.8264 155.647 2 40 15.9075 155.613 37 1002 240 11 325
1951124N04167 1951 26 WP MM JOAN 1951-05-11 00:00:00 TS 16.4000 155.350 1005 tokyo main 2193 2193 OOO______OOO__ jtwc_wp WP041951 16.3000 155.300 40 0 16.6000 155.400 9 1005 0 0 0 16.6000 155.500 2 38 1000 16.3000 155.300 TC 40 16.3000 155.300 2 40 16.3000 155.300 40 1004 240 10 329
1951124N04167 1951 26 WP MM JOAN 1951-05-11 03:00:00 TS 16.7626 155.133 main 2232 2232 PPP______PPP__ WP041951 16.5022 155.171 40 0 17.1149 155.200 9 1003 0 0 17.0649 155.200 2 33 1001 16.5022 155.171 TC 40 16.8890 154.886 2 40 16.5022 155.171 40 1003 270 9 332
1951124N04167 1951 26 WP MM JOAN 1951-05-11 06:00:00 TS 17.2267 154.899 1002 tokyo main 2271 2271 OOO______OPO__ jtwc_wp WP041951 16.9000 155.000 40 0 17.6000 155.000 9 1002 0 0 0 17.5000 154.900 1 29 1002 16.9000 155.000 TC 40 17.5604 154.496 2 40 16.9000 155.000 40 1002 300 14 334
1951124N04167 1951 26 WP MM JOAN 1951-05-11 09:00:00 TS 17.9964 154.494 main 2351 2273 PPP______PPP__ WP041951 17.8906 154.472 40 0 18.0574 154.772 9 1003 0 0 17.9725 154.593 1 29 1003 17.8906 154.472 TC 40 18.2766 154.183 2 40 17.8906 154.472 40 1001 270 18 335
1951124N04167 1951 26 WP MM JOAN 1951-05-11 12:00:00 TS 18.8167 154.133 1004 tokyo main 2273 2211 OOO______OOO__ jtwc_wp WP041951 19.0000 154.000 40 0 18.5000 154.500 2 1004 0 0 0 18.4000 154.300 1 29 1004 19.0000 154.000 TC 40 19.0000 154.000 2 40 19.0000 154.000 40 1001 240 15 342
1951124N04167 1951 26 WP MM JOAN 1951-05-11 15:00:00 TS 19.4354 154.003 main 2211 2156 PPP______PPP__ WP041951 19.7597 153.937 40 0 18.9576 154.150 2 1005 0 0 18.6849 154.057 1 24 1005 19.7597 153.937 TC 40 19.6908 153.999 2 38 19.7597 153.937 40 1000 240 12 354
1951124N04167 1951 26 WP MM JOAN 1951-05-11 18:00:00 TS 19.9966 154.005 1006 tokyo main 2156 2102 OOO______OPO__ jtwc_wp WP041951 20.4000 154.100 40 0 19.4000 153.800 2 1006 0 0 0 19.0000 153.800 0 19 1006 20.4000 154.100 TC 40 20.3796 154.133 2 37 20.4000 154.100 40 1000 240 12 2
1951124N04167 1951 26 WP MM JOAN 1951-05-11 21:00:00 TS 20.5936 154.052 main 2108 2054 PPP______PPP__ WP041951 21.0576 154.327 37 0 19.8074 153.535 2 1007 0 0 19.5276 153.443 0 19 1007 21.0576 154.327 TC 37 21.0536 154.350 2 36 21.0576 154.327 37 1001 180 12 6
1951124N04167 1951 26 WP MM JOAN 1951-05-12 00:00:00 TS 21.1833 154.133 1008 tokyo main 2054 2017 OOO______OOO__ jtwc_wp WP041951 21.7000 154.600 35 0 20.2000 153.300 2 1008 0 0 0 20.1000 153.100 0 19 1008 21.7000 154.600 TC 35 21.7000 154.600 2 35 21.7000 154.600 35 1002 120 12 6
1951124N04167 1951 26 WP MM JOAN 1951-05-12 03:00:00 TS 21.7679 154.192 main 2008 1967 PPP______PPP__ WP041951 22.3724 154.800 35 0 20.6000 153.042 2 1008 0 0 20.5799 152.870 0 19 1008 22.3724 154.800 TC 35 22.3101 154.841 2 33 22.3724 154.800 35 1003 120 10 0
1951124N04167 1951 26 WP MM JOAN 1951-05-12 06:00:00 TS 22.1835 154.110 1008 tokyo main 1967 1936 OOO______OPO__ jtwc_wp WP041951 23.0000 155.000 35 0 21.0000 152.800 2 1008 0 0 0 21.0000 152.700 0 19 1008 23.0000 155.000 TC 35 22.8902 155.068 2 32 23.0000 155.000 35 1004 120 7 338
1951124N04167 1951 26 WP MM JOAN 1951-05-12 09:00:00 TS 22.4444 153.899 main 1936 1902 PPP______PPP__ WP041951 23.5301 155.237 32 -1 21.4000 152.570 2 1008 0 0 21.3575 152.527 0 19 1008 23.5301 155.237 TC 32 23.4502 155.286 2 31 23.5301 155.237 32 1004 120 7 297
1951124N04167 1951 26 WP MM JOAN 1951-05-12 12:00:00 TS 22.5000 153.433 1008 tokyo main 1895 1860 OOO______OOO__ jtwc_wp WP041951 24.0000 155.500 30 -1 21.8000 152.400 2 1008 0 0 0 21.7000 152.400 0 19 1008 24.0000 155.500 TC 30 24.0000 155.500 1 30 24.0000 155.500 30 1005 120 15 258
1951124N04167 1951 26 WP MM JOAN 1951-05-12 15:00:00 TS 22.1425 152.316 main 1863 1826 _PP___________ WP041951 -1 22.1925 152.312 2 1008 0 0 22.0925 152.320 0 19 1008 TC 1 10 273
1951124N04167 1951 26 WP MM JOAN 1951-05-12 18:00:00 TS 22.5500 152.300 1008 tokyo main 1818 1782 _OO___________ -1 22.6000 152.300 2 1008 0 0 0 22.5000 152.300 0 19 1008 1 8 358
1951124N04167 1951 26 WP MM JOAN 1951-05-12 21:00:00 TS 22.9749 152.298 main 1782 1753 _PP___________ -1 23.0574 152.298 2 1008 0 0 22.8924 152.298 0 19 1008 1 9 6
1951124N04167 1951 26 WP MM JOAN 1951-05-13 00:00:00 TS 23.4000 152.400 1008 tokyo main 1753 1731 _OO___________ -1 23.5000 152.400 2 1008 0 0 0 23.3000 152.400 0 19 1008 9 21
1951124N04167 1951 26 WP MM JOAN 1951-05-13 03:00:00 TS 23.8037 152.647 main 1731 1724 _PP___________ -1 23.8575 152.648 2 1008 0 0 23.7500 152.647 0 1008 10 35
1951124N04167 1951 26 WP MM JOAN 1951-05-13 06:00:00 TS 24.2000 153.000 1009 tokyo main 1724 1711 _OO___________ -1 24.2000 153.000 2 1009 0 0 0 24.2000 153.000 0 1009 10 39
1951124N04167 1951 26 WP MM JOAN 1951-05-13 09:00:00 TS 24.5923 153.359 main 1718 1708 _PP___________ -1 24.5847 153.355 2 1009 0 0 24.5998 153.363 0 1009 11 42
1951124N04167 1951 26 WP MM JOAN 1951-05-13 12:00:00 TS 25.0000 153.800 1010 tokyo main 1715 1711 _OO___________ -1 25.0000 153.800 2 1010 0 0 0 25.0000 153.800 0 1010 12 48
1951124N04167 1951 26 WP MM JOAN 1951-05-13 15:00:00 TS 25.4201 154.357 main 1725 1717 _PP___________ -1 25.4203 154.385 2 1010 0 0 25.4200 154.328 0 1010 14 49
1951124N04167 1951 26 WP MM JOAN 1951-05-13 18:00:00 TS 25.9000 154.950 1010 tokyo main 1729 1722 _OO___________ -1 25.9000 155.000 2 1010 0 0 0 25.9000 154.900 0 1010 15 43
1951124N04167 1951 26 WP MM JOAN 1951-05-13 21:00:00 TS 26.4922 155.479 main 1722 1715 _PP___________ -1 26.4921 155.508 2 1009 0 0 26.4923 155.450 0 1009 15 38
1951124N04167 1951 26 WP MM JOAN 1951-05-14 00:00:00 MX 27.1000 156.000 1008 tokyo main 1719 1719 _OO___________ -1 27.1000 156.000 6 1008 0 0 0 27.1000 156.000 0 1008 15 40
1951124N04167 1951 26 WP MM JOAN 1951-05-14 03:00:00 MX 27.6224 156.554 main 1733 1727 _PP___________ -1 27.6224 156.550 6 1008 0 0 27.6224 156.558 0 1008 14 44
1951124N04167 1951 26 WP MM JOAN 1951-05-14 06:00:00 MX 28.1000 157.100 1008 tokyo main 1742 1742 _OO___________ -1 28.1000 157.100 6 1008 0 0 0 28.1000 157.100 0 1008 12 46
1951124N04167 1951 26 WP MM JOAN 1951-05-14 09:00:00 MX 28.4738 157.544 main 1751 1751 _PP___________ -1 28.4738 157.544 6 1008 0 0 28.4738 157.544 0 1008 13 44
1951124N04167 1951 26 WP MM JOAN 1951-05-14 12:00:00 MX 29.0000 158.100 1008 tokyo main 1774 1774 _OO___________ -1 29.0000 158.100 6 1008 0 0 0 29.0000 158.100 0 1008 19 42
1951124N04167 1951 26 WP MM JOAN 1951-05-14 15:00:00 MX 29.8502 158.958 main 1804 1804 _PP___________ -1 29.8430 158.969 6 1006 0 0 29.8574 158.947 0 1006 26 39
1951124N04167 1951 26 WP MM JOAN 1951-05-14 18:00:00 ET 31.0000 160.000 1004 tokyo main 1843 1758 _OO___________ -1 31.0000 160.000 6 1004 0 0 0 31.0000 160.000 9 1004 32 35
1951124N04167 1951 26 WP MM JOAN 1951-05-14 21:00:00 ET 32.4606 161.082 main 1753 1682 _PP___________ -1 32.5135 160.996 6 1005 0 0 32.4076 161.167 9 1005 35 33
1951124N04167 1951 26 WP MM JOAN 1951-05-15 00:00:00 ET 33.9000 162.250 1006 tokyo main 1683 1652 _OO___________ -1 34.0000 162.100 6 1006 0 0 0 33.8000 162.400 9 1006 32 39
1951124N04167 1951 26 WP MM JOAN 1951-05-15 03:00:00 ET 34.9480 163.474 main 1658 1646 _PP___________ -1 35.0351 163.387 6 1007 0 0 34.8610 163.561 9 1007 27 47
1951124N04167 1951 26 WP MM JOAN 1951-05-15 06:00:00 ET 35.7500 164.700 1008 tokyo main 1651 1651 _OO___________ -1 35.8000 164.700 6 1008 0 0 0 35.7000 164.700 9 1008 24 52
1951124N04167 1951 26 WP MM JOAN 1951-05-15 09:00:00 ET 36.4353 165.806 main 1671 1669 _PP___________ -1 36.4562 165.817 6 1008 0 0 36.4144 165.794 9 1008 22 56
1951124N04167 1951 26 WP MM JOAN 1951-05-15 12:00:00 ET 37.0000 167.000 1008 tokyo main 1703 1703 _OO___________ -1 37.0000 167.000 6 1008 0 0 0 37.0000 167.000 9 1008 24 63
1951124N04167 1951 26 WP MM JOAN 1951-05-15 15:00:00 ET 37.5283 168.543 main 1728 1723 _PP___________ -1 37.5245 168.543 6 1007 0 0 37.5320 168.543 9 1007 27 68
1951124N04167 1951 26 WP MM JOAN 1951-05-15 18:00:00 ET 38.0000 170.100 1006 tokyo main 1758 1758 _OO___________ -1 38.0000 170.100 6 1006 0 0 0 38.0000 170.100 9 1006 24 67
1951124N04167 1951 26 WP MM JOAN 1951-05-15 21:00:00 ET 38.4547 171.363 main 1781 1781 _PP___________ -1 38.4547 171.363 6 1005 0 0 38.4547 171.363 9 1005 21 64
1951124N04167 1951 26 WP MM JOAN 1951-05-16 00:00:00 ET 38.9000 172.500 1004 tokyo main 1806 1801 _OO___________ -1 38.9000 172.500 6 1004 0 0 0 38.9000 172.500 9 1004 20 63
1951124N04167 1951 26 WP MM JOAN 1951-05-16 03:00:00 ET 39.3640 173.673 main 1820 1820 _PP___________ -1 39.3640 173.673 6 1004 0 0 39.3640 173.673 9 1004 20 63
1951124N04167 1951 26 WP MM JOAN 1951-05-16 06:00:00 ET 39.8000 174.800 1004 tokyo main 1842 1821 _OO___________ -1 39.8000 174.800 6 1004 0 0 0 39.8000 174.800 9 1004 19 64
1951124N04167 1951 26 WP MM JOAN 1951-05-16 09:00:00 ET 40.1788 175.874 main 1817 1747 _PP___________ -1 40.1788 175.874 6 1004 0 0 40.1788 175.874 9 1004 17 66
1951124N04167 1951 26 WP MM JOAN 1951-05-16 12:00:00 ET 40.5000 176.900 1004 tokyo main 1742 1678 _OO___________ -1 40.5000 176.900 6 1004 0 0 0 40.5000 176.900 9 1004 17 70
1951124N04167 1951 26 WP MM JOAN 1951-05-16 15:00:00 ET 40.7577 177.976 main 1664 1606 _PP___________ -1 40.7566 177.917 6 997 0 0 40.7587 178.035 9 997 16 72
1951124N04167 1951 26 WP MM JOAN 1951-05-16 18:00:00 ET 41.0000 178.900 990 tokyo main 1606 1552 _OO___________ -1 41.0000 178.900 6 990 0 0 0 41.0000 178.900 9 990 13 66
1951124N04167 1951 26 WP MM JOAN 1951-05-16 21:00:00 ET 41.2852 179.537 main 1552 1503 _PP___________ -1 41.2865 179.855 6 990 0 0 41.2840 179.218 9 990 10 54
1951124N04167 1951 26 EP CP JOAN 1951-05-17 00:00:00 ET 41.6000 180.000 main 1503 _OO___________ -1 41.6000 180.800 6 990 0 0 0 41.6000 179.200 9 990 9 48

Digital Typhoon Data and Search

About IBTrACS Database

This database is a web-friendly format of International Best Track Archive for Climate Stewardship (IBTrACS), a global best track data archive curated by NOAA dating back to 1842.

Updated: 2021-11-26